sensor_id;sensor_type;location;lat;lon;timestamp;P1;durP1;ratioP1;P2;durP2;ratioP2
28774;SDS011;15926;51.348;6.596;2023-03-01T00:01:33;8.30;;;6.03;;
28774;SDS011;15926;51.348;6.596;2023-03-01T00:03:59;7.78;;;5.85;;
28774;SDS011;15926;51.348;6.596;2023-03-01T00:06:25;10.65;;;5.93;;
28774;SDS011;15926;51.348;6.596;2023-03-01T00:08:52;8.65;;;5.65;;
28774;SDS011;15926;51.348;6.596;2023-03-01T00:11:22;7.32;;;5.68;;
28774;SDS011;15926;51.348;6.596;2023-03-01T00:13:49;14.15;;;6.03;;
28774;SDS011;15926;51.348;6.596;2023-03-01T00:16:21;7.90;;;5.85;;
28774;SDS011;15926;51.348;6.596;2023-03-01T00:18:47;10.68;;;6.00;;
28774;SDS011;15926;51.348;6.596;2023-03-01T00:21:13;7.00;;;5.75;;
28774;SDS011;15926;51.348;6.596;2023-03-01T00:23:40;11.15;;;5.85;;
28774;SDS011;15926;51.348;6.596;2023-03-01T00:26:07;11.60;;;5.90;;
28774;SDS011;15926;51.348;6.596;2023-03-01T00:28:34;12.48;;;5.80;;
28774;SDS011;15926;51.348;6.596;2023-03-01T00:31:07;11.40;;;6.30;;
28774;SDS011;15926;51.348;6.596;2023-03-01T00:33:33;10.45;;;6.30;;
28774;SDS011;15926;51.348;6.596;2023-03-01T00:35:59;8.93;;;6.35;;
28774;SDS011;15926;51.348;6.596;2023-03-01T00:38:25;12.70;;;6.28;;
28774;SDS011;15926;51.348;6.596;2023-03-01T00:40:52;10.85;;;6.35;;
28774;SDS011;15926;51.348;6.596;2023-03-01T00:43:18;10.23;;;6.13;;
28774;SDS011;15926;51.348;6.596;2023-03-01T00:45:44;12.70;;;6.97;;
28774;SDS011;15926;51.348;6.596;2023-03-01T00:48:10;14.27;;;6.43;;
28774;SDS011;15926;51.348;6.596;2023-03-01T00:50:36;10.45;;;6.95;;
28774;SDS011;15926;51.348;6.596;2023-03-01T00:53:02;9.82;;;5.90;;
28774;SDS011;15926;51.348;6.596;2023-03-01T00:55:30;9.77;;;6.13;;
28774;SDS011;15926;51.348;6.596;2023-03-01T00:57:56;10.23;;;5.80;;
28774;SDS011;15926;51.348;6.596;2023-03-01T01:00:22;10.73;;;6.38;;
28774;SDS011;15926;51.348;6.596;2023-03-01T01:02:48;14.38;;;6.32;;
28774;SDS011;15926;51.348;6.596;2023-03-01T01:05:14;11.20;;;6.13;;
28774;SDS011;15926;51.348;6.596;2023-03-01T01:07:46;13.13;;;6.75;;
28774;SDS011;15926;51.348;6.596;2023-03-01T01:10:12;10.00;;;6.10;;
28774;SDS011;15926;51.348;6.596;2023-03-01T01:12:42;10.73;;;6.10;;
28774;SDS011;15926;51.348;6.596;2023-03-01T01:15:09;11.25;;;6.78;;
28774;SDS011;15926;51.348;6.596;2023-03-01T01:17:37;9.90;;;6.32;;
28774;SDS011;15926;51.348;6.596;2023-03-01T01:20:04;11.63;;;6.45;;
28774;SDS011;15926;51.348;6.596;2023-03-01T01:22:30;14.75;;;7.47;;
28774;SDS011;15926;51.348;6.596;2023-03-01T01:24:56;9.55;;;6.45;;
28774;SDS011;15926;51.348;6.596;2023-03-01T01:27:22;7.93;;;5.95;;
28774;SDS011;15926;51.348;6.596;2023-03-01T01:29:48;10.45;;;6.40;;
28774;SDS011;15926;51.348;6.596;2023-03-01T01:32:14;9.15;;;6.85;;
28774;SDS011;15926;51.348;6.596;2023-03-01T01:34:40;13.48;;;7.10;;
28774;SDS011;15926;51.348;6.596;2023-03-01T01:37:06;10.88;;;6.60;;
28774;SDS011;15926;51.348;6.596;2023-03-01T01:39:33;13.57;;;7.55;;
28774;SDS011;15926;51.348;6.596;2023-03-01T01:41:59;12.50;;;7.53;;
28774;SDS011;15926;51.348;6.596;2023-03-01T01:44:26;11.52;;;6.55;;
28774;SDS011;15926;51.348;6.596;2023-03-01T01:52:02;11.32;;;7.38;;
28774;SDS011;15926;51.348;6.596;2023-03-01T01:54:37;15.90;;;7.03;;
28774;SDS011;15926;51.348;6.596;2023-03-01T01:57:06;12.82;;;7.53;;
28774;SDS011;15926;51.348;6.596;2023-03-01T01:59:33;8.70;;;6.45;;
28774;SDS011;15926;51.348;6.596;2023-03-01T02:01:59;11.30;;;6.93;;
28774;SDS011;15926;51.348;6.596;2023-03-01T02:04:26;13.32;;;7.03;;
28774;SDS011;15926;51.348;6.596;2023-03-01T02:07:03;11.27;;;7.03;;
28774;SDS011;15926;51.348;6.596;2023-03-01T02:09:30;11.90;;;7.32;;
28774;SDS011;15926;51.348;6.596;2023-03-01T02:11:58;10.80;;;7.60;;
28774;SDS011;15926;51.348;6.596;2023-03-01T02:14:24;9.30;;;6.85;;
28774;SDS011;15926;51.348;6.596;2023-03-01T02:16:51;11.68;;;7.50;;
28774;SDS011;15926;51.348;6.596;2023-03-01T02:19:27;12.50;;;7.10;;
28774;SDS011;15926;51.348;6.596;2023-03-01T02:22:18;10.32;;;6.95;;
28774;SDS011;15926;51.348;6.596;2023-03-01T02:24:51;13.95;;;7.50;;
28774;SDS011;15926;51.348;6.596;2023-03-01T02:27:19;15.93;;;7.45;;
28774;SDS011;15926;51.348;6.596;2023-03-01T02:29:48;12.80;;;7.97;;
28774;SDS011;15926;51.348;6.596;2023-03-01T02:32:15;11.15;;;7.93;;
28774;SDS011;15926;51.348;6.596;2023-03-01T02:34:49;15.00;;;7.55;;
28774;SDS011;15926;51.348;6.596;2023-03-01T02:37:16;11.90;;;7.22;;
28774;SDS011;15926;51.348;6.596;2023-03-01T02:39:49;12.98;;;7.50;;
28774;SDS011;15926;51.348;6.596;2023-03-01T02:42:21;12.45;;;7.30;;
28774;SDS011;15926;51.348;6.596;2023-03-01T02:44:48;12.93;;;7.38;;
28774;SDS011;15926;51.348;6.596;2023-03-01T02:47:14;12.10;;;7.38;;
28774;SDS011;15926;51.348;6.596;2023-03-01T02:49:40;13.55;;;6.82;;
28774;SDS011;15926;51.348;6.596;2023-03-01T02:57:21;12.75;;;7.93;;
28774;SDS011;15926;51.348;6.596;2023-03-01T02:59:47;15.98;;;7.65;;
28774;SDS011;15926;51.348;6.596;2023-03-01T03:02:21;14.77;;;8.25;;
28774;SDS011;15926;51.348;6.596;2023-03-01T03:05:02;12.38;;;7.35;;
28774;SDS011;15926;51.348;6.596;2023-03-01T03:07:28;13.85;;;8.77;;
28774;SDS011;15926;51.348;6.596;2023-03-01T03:09:54;15.55;;;8.95;;
28774;SDS011;15926;51.348;6.596;2023-03-01T03:12:20;14.93;;;7.90;;
28774;SDS011;15926;51.348;6.596;2023-03-01T03:14:46;15.15;;;8.30;;
28774;SDS011;15926;51.348;6.596;2023-03-01T03:17:15;11.23;;;7.57;;
28774;SDS011;15926;51.348;6.596;2023-03-01T03:19:41;14.82;;;7.35;;
28774;SDS011;15926;51.348;6.596;2023-03-01T03:22:10;17.40;;;8.43;;
28774;SDS011;15926;51.348;6.596;2023-03-01T03:24:36;17.45;;;7.85;;
28774;SDS011;15926;51.348;6.596;2023-03-01T03:27:06;15.02;;;7.55;;
28774;SDS011;15926;51.348;6.596;2023-03-01T03:29:32;11.93;;;7.57;;
28774;SDS011;15926;51.348;6.596;2023-03-01T03:31:58;11.30;;;6.85;;
28774;SDS011;15926;51.348;6.596;2023-03-01T03:34:24;14.65;;;8.23;;
28774;SDS011;15926;51.348;6.596;2023-03-01T03:36:54;17.05;;;7.75;;
28774;SDS011;15926;51.348;6.596;2023-03-01T03:39:22;14.32;;;7.35;;
28774;SDS011;15926;51.348;6.596;2023-03-01T03:41:48;10.90;;;7.20;;
28774;SDS011;15926;51.348;6.596;2023-03-01T03:44:14;12.82;;;7.30;;
28774;SDS011;15926;51.348;6.596;2023-03-01T03:46:40;12.13;;;6.85;;
28774;SDS011;15926;51.348;6.596;2023-03-01T03:49:06;16.70;;;8.20;;
28774;SDS011;15926;51.348;6.596;2023-03-01T03:51:32;13.02;;;7.30;;
28774;SDS011;15926;51.348;6.596;2023-03-01T03:53:58;15.15;;;8.55;;
28774;SDS011;15926;51.348;6.596;2023-03-01T03:56:24;11.95;;;7.43;;
28774;SDS011;15926;51.348;6.596;2023-03-01T03:58:53;13.90;;;7.30;;
28774;SDS011;15926;51.348;6.596;2023-03-01T04:01:19;12.43;;;7.65;;
28774;SDS011;15926;51.348;6.596;2023-03-01T04:03:45;14.80;;;7.47;;
28774;SDS011;15926;51.348;6.596;2023-03-01T04:06:12;16.25;;;7.30;;
28774;SDS011;15926;51.348;6.596;2023-03-01T04:08:38;15.32;;;7.43;;
28774;SDS011;15926;51.348;6.596;2023-03-01T04:11:05;15.40;;;7.55;;
28774;SDS011;15926;51.348;6.596;2023-03-01T04:14:01;15.05;;;7.50;;
28774;SDS011;15926;51.348;6.596;2023-03-01T04:16:29;14.55;;;8.20;;
28774;SDS011;15926;51.348;6.596;2023-03-01T04:18:55;13.77;;;7.53;;
28774;SDS011;15926;51.348;6.596;2023-03-01T04:23:50;16.33;;;6.90;;
28774;SDS011;15926;51.348;6.596;2023-03-01T04:26:17;14.70;;;7.53;;
28774;SDS011;15926;51.348;6.596;2023-03-01T04:28:44;10.50;;;7.07;;
28774;SDS011;15926;51.348;6.596;2023-03-01T04:31:15;14.60;;;7.78;;
28774;SDS011;15926;51.348;6.596;2023-03-01T04:36:09;13.35;;;7.30;;
28774;SDS011;15926;51.348;6.596;2023-03-01T04:38:41;15.05;;;7.40;;
28774;SDS011;15926;51.348;6.596;2023-03-01T04:41:08;14.43;;;7.50;;
28774;SDS011;15926;51.348;6.596;2023-03-01T04:43:37;14.75;;;8.60;;
28774;SDS011;15926;51.348;6.596;2023-03-01T04:46:04;16.15;;;8.25;;
28774;SDS011;15926;51.348;6.596;2023-03-01T04:48:32;15.07;;;7.70;;
28774;SDS011;15926;51.348;6.596;2023-03-01T04:50:58;15.57;;;8.75;;
28774;SDS011;15926;51.348;6.596;2023-03-01T04:53:25;13.80;;;8.35;;
28774;SDS011;15926;51.348;6.596;2023-03-01T04:55:51;16.92;;;7.82;;
28774;SDS011;15926;51.348;6.596;2023-03-01T04:58:17;15.82;;;8.48;;
28774;SDS011;15926;51.348;6.596;2023-03-01T05:00:43;14.90;;;7.85;;
28774;SDS011;15926;51.348;6.596;2023-03-01T05:03:09;13.35;;;7.35;;
28774;SDS011;15926;51.348;6.596;2023-03-01T05:05:36;10.35;;;7.40;;
28774;SDS011;15926;51.348;6.596;2023-03-01T05:08:06;18.40;;;8.45;;
28774;SDS011;15926;51.348;6.596;2023-03-01T05:10:34;18.17;;;8.95;;
28774;SDS011;15926;51.348;6.596;2023-03-01T05:13:01;14.63;;;8.23;;
28774;SDS011;15926;51.348;6.596;2023-03-01T05:15:28;14.43;;;7.68;;
28774;SDS011;15926;51.348;6.596;2023-03-01T05:17:55;15.90;;;8.73;;
28774;SDS011;15926;51.348;6.596;2023-03-01T05:20:23;16.23;;;7.63;;
28774;SDS011;15926;51.348;6.596;2023-03-01T05:22:54;14.20;;;7.47;;
28774;SDS011;15926;51.348;6.596;2023-03-01T05:25:20;14.43;;;8.27;;
28774;SDS011;15926;51.348;6.596;2023-03-01T05:27:49;16.10;;;8.27;;
28774;SDS011;15926;51.348;6.596;2023-03-01T05:30:16;14.57;;;8.60;;
28774;SDS011;15926;51.348;6.596;2023-03-01T05:32:46;13.27;;;8.27;;
28774;SDS011;15926;51.348;6.596;2023-03-01T05:35:13;13.25;;;8.18;;
28774;SDS011;15926;51.348;6.596;2023-03-01T05:37:40;15.02;;;8.70;;
28774;SDS011;15926;51.348;6.596;2023-03-01T05:40:07;14.23;;;8.77;;
28774;SDS011;15926;51.348;6.596;2023-03-01T05:42:40;13.82;;;8.30;;
28774;SDS011;15926;51.348;6.596;2023-03-01T05:45:13;13.77;;;7.60;;
28774;SDS011;15926;51.348;6.596;2023-03-01T05:47:43;13.90;;;8.45;;
28774;SDS011;15926;51.348;6.596;2023-03-01T05:50:16;20.98;;;8.73;;
28774;SDS011;15926;51.348;6.596;2023-03-01T05:52:44;22.13;;;8.20;;
28774;SDS011;15926;51.348;6.596;2023-03-01T05:55:10;16.27;;;7.75;;
28774;SDS011;15926;51.348;6.596;2023-03-01T05:57:36;18.15;;;8.90;;
28774;SDS011;15926;51.348;6.596;2023-03-01T06:00:02;17.30;;;9.15;;
28774;SDS011;15926;51.348;6.596;2023-03-01T06:02:29;15.52;;;8.40;;
28774;SDS011;15926;51.348;6.596;2023-03-01T06:04:55;16.65;;;8.68;;
28774;SDS011;15926;51.348;6.596;2023-03-01T06:07:21;14.63;;;8.43;;
28774;SDS011;15926;51.348;6.596;2023-03-01T06:09:59;14.63;;;8.13;;
28774;SDS011;15926;51.348;6.596;2023-03-01T06:12:25;20.05;;;8.82;;
28774;SDS011;15926;51.348;6.596;2023-03-01T06:14:52;14.27;;;8.13;;
28774;SDS011;15926;51.348;6.596;2023-03-01T06:17:18;15.82;;;8.23;;
28774;SDS011;15926;51.348;6.596;2023-03-01T06:19:44;19.73;;;8.88;;
28774;SDS011;15926;51.348;6.596;2023-03-01T06:22:12;16.42;;;8.55;;
28774;SDS011;15926;51.348;6.596;2023-03-01T06:24:38;13.57;;;8.02;;
28774;SDS011;15926;51.348;6.596;2023-03-01T06:27:08;15.95;;;8.18;;
28774;SDS011;15926;51.348;6.596;2023-03-01T06:29:37;16.10;;;8.20;;
28774;SDS011;15926;51.348;6.596;2023-03-01T06:32:03;16.92;;;8.85;;
28774;SDS011;15926;51.348;6.596;2023-03-01T06:34:30;14.95;;;8.40;;
28774;SDS011;15926;51.348;6.596;2023-03-01T06:36:59;17.20;;;8.98;;
28774;SDS011;15926;51.348;6.596;2023-03-01T06:39:31;17.42;;;8.40;;
28774;SDS011;15926;51.348;6.596;2023-03-01T06:42:00;14.45;;;7.47;;
28774;SDS011;15926;51.348;6.596;2023-03-01T06:44:29;17.08;;;8.23;;
28774;SDS011;15926;51.348;6.596;2023-03-01T06:46:56;15.60;;;8.20;;
28774;SDS011;15926;51.348;6.596;2023-03-01T06:49:25;14.70;;;8.20;;
28774;SDS011;15926;51.348;6.596;2023-03-01T06:51:52;14.98;;;8.07;;
28774;SDS011;15926;51.348;6.596;2023-03-01T06:54:18;14.30;;;8.40;;
28774;SDS011;15926;51.348;6.596;2023-03-01T06:56:47;20.75;;;8.52;;
28774;SDS011;15926;51.348;6.596;2023-03-01T06:59:15;14.48;;;7.85;;
28774;SDS011;15926;51.348;6.596;2023-03-01T07:01:41;14.45;;;8.68;;
28774;SDS011;15926;51.348;6.596;2023-03-01T07:04:08;16.77;;;8.63;;
28774;SDS011;15926;51.348;6.596;2023-03-01T07:06:34;17.48;;;9.43;;
28774;SDS011;15926;51.348;6.596;2023-03-01T07:09:01;12.52;;;7.80;;
28774;SDS011;15926;51.348;6.596;2023-03-01T07:13:56;13.90;;;7.75;;
28774;SDS011;15926;51.348;6.596;2023-03-01T07:16:23;13.07;;;7.78;;
28774;SDS011;15926;51.348;6.596;2023-03-01T07:18:49;18.00;;;8.20;;
28774;SDS011;15926;51.348;6.596;2023-03-01T07:21:15;14.82;;;8.35;;
28774;SDS011;15926;51.348;6.596;2023-03-01T07:23:41;15.70;;;8.52;;
28774;SDS011;15926;51.348;6.596;2023-03-01T07:26:08;14.43;;;8.05;;
28774;SDS011;15926;51.348;6.596;2023-03-01T07:28:34;16.27;;;8.43;;
28774;SDS011;15926;51.348;6.596;2023-03-01T07:31:05;14.68;;;8.30;;
28774;SDS011;15926;51.348;6.596;2023-03-01T07:33:31;17.90;;;8.40;;
28774;SDS011;15926;51.348;6.596;2023-03-01T07:35:58;18.13;;;8.60;;
28774;SDS011;15926;51.348;6.596;2023-03-01T07:38:25;15.52;;;7.65;;
28774;SDS011;15926;51.348;6.596;2023-03-01T07:40:51;11.73;;;6.88;;
28774;SDS011;15926;51.348;6.596;2023-03-01T07:43:17;13.35;;;7.57;;
28774;SDS011;15926;51.348;6.596;2023-03-01T07:45:44;14.75;;;7.22;;
28774;SDS011;15926;51.348;6.596;2023-03-01T07:48:10;15.52;;;7.88;;
28774;SDS011;15926;51.348;6.596;2023-03-01T07:50:36;13.27;;;7.75;;
28774;SDS011;15926;51.348;6.596;2023-03-01T07:53:02;14.65;;;8.15;;
28774;SDS011;15926;51.348;6.596;2023-03-01T07:55:29;12.20;;;7.32;;
28774;SDS011;15926;51.348;6.596;2023-03-01T07:57:58;14.55;;;7.20;;
28774;SDS011;15926;51.348;6.596;2023-03-01T08:02:50;16.50;;;6.72;;
28774;SDS011;15926;51.348;6.596;2023-03-01T08:05:16;10.98;;;7.35;;
28774;SDS011;15926;51.348;6.596;2023-03-01T08:07:42;18.55;;;7.88;;
28774;SDS011;15926;51.348;6.596;2023-03-01T08:10:09;10.38;;;6.97;;
28774;SDS011;15926;51.348;6.596;2023-03-01T08:12:35;13.50;;;7.95;;
28774;SDS011;15926;51.348;6.596;2023-03-01T08:15:01;11.27;;;7.03;;
28774;SDS011;15926;51.348;6.596;2023-03-01T08:17:27;11.60;;;7.05;;
28774;SDS011;15926;51.348;6.596;2023-03-01T08:19:53;16.27;;;7.68;;
28774;SDS011;15926;51.348;6.596;2023-03-01T08:22:19;12.95;;;7.38;;
28774;SDS011;15926;51.348;6.596;2023-03-01T08:24:46;17.55;;;7.57;;
28774;SDS011;15926;51.348;6.596;2023-03-01T08:27:14;12.15;;;6.70;;
28774;SDS011;15926;51.348;6.596;2023-03-01T08:29:40;12.80;;;6.53;;
28774;SDS011;15926;51.348;6.596;2023-03-01T08:32:09;8.75;;;5.82;;
28774;SDS011;15926;51.348;6.596;2023-03-01T08:34:35;11.85;;;7.25;;
28774;SDS011;15926;51.348;6.596;2023-03-01T08:37:01;13.10;;;7.30;;
28774;SDS011;15926;51.348;6.596;2023-03-01T08:39:27;10.25;;;6.63;;
28774;SDS011;15926;51.348;6.596;2023-03-01T08:41:53;12.73;;;6.45;;
28774;SDS011;15926;51.348;6.596;2023-03-01T08:44:19;13.02;;;6.18;;
28774;SDS011;15926;51.348;6.596;2023-03-01T08:46:46;11.82;;;6.65;;
28774;SDS011;15926;51.348;6.596;2023-03-01T08:49:15;9.35;;;6.15;;
28774;SDS011;15926;51.348;6.596;2023-03-01T08:51:42;9.75;;;6.28;;
28774;SDS011;15926;51.348;6.596;2023-03-01T08:54:13;11.68;;;6.97;;
28774;SDS011;15926;51.348;6.596;2023-03-01T08:56:39;8.02;;;5.90;;
28774;SDS011;15926;51.348;6.596;2023-03-01T08:59:06;11.23;;;5.72;;
28774;SDS011;15926;51.348;6.596;2023-03-01T09:01:32;12.35;;;6.68;;
28774;SDS011;15926;51.348;6.596;2023-03-01T09:03:59;11.90;;;6.75;;
28774;SDS011;15926;51.348;6.596;2023-03-01T09:06:25;11.35;;;6.65;;
28774;SDS011;15926;51.348;6.596;2023-03-01T09:08:51;11.43;;;7.13;;
28774;SDS011;15926;51.348;6.596;2023-03-01T09:11:20;10.85;;;6.90;;
28774;SDS011;15926;51.348;6.596;2023-03-01T09:13:47;9.32;;;6.60;;
28774;SDS011;15926;51.348;6.596;2023-03-01T09:16:14;11.10;;;7.20;;
28774;SDS011;15926;51.348;6.596;2023-03-01T09:18:42;10.52;;;6.57;;
28774;SDS011;15926;51.348;6.596;2023-03-01T09:23:35;11.25;;;5.93;;
28774;SDS011;15926;51.348;6.596;2023-03-01T09:26:02;10.32;;;6.60;;
28774;SDS011;15926;51.348;6.596;2023-03-01T09:28:28;11.30;;;6.60;;
28774;SDS011;15926;51.348;6.596;2023-03-01T09:30:57;10.80;;;6.43;;
28774;SDS011;15926;51.348;6.596;2023-03-01T09:33:23;14.13;;;6.35;;
28774;SDS011;15926;51.348;6.596;2023-03-01T09:35:49;12.68;;;6.95;;
28774;SDS011;15926;51.348;6.596;2023-03-01T09:38:15;10.50;;;6.35;;
28774;SDS011;15926;51.348;6.596;2023-03-01T09:40:42;9.57;;;6.30;;
28774;SDS011;15926;51.348;6.596;2023-03-01T09:45:58;11.63;;;6.53;;
28774;SDS011;15926;51.348;6.596;2023-03-01T09:48:26;10.80;;;6.78;;
28774;SDS011;15926;51.348;6.596;2023-03-01T09:50:52;11.93;;;6.85;;
28774;SDS011;15926;51.348;6.596;2023-03-01T09:53:20;9.68;;;6.60;;
28774;SDS011;15926;51.348;6.596;2023-03-01T09:56:05;13.15;;;6.90;;
28774;SDS011;15926;51.348;6.596;2023-03-01T10:01:50;10.63;;;5.45;;
28774;SDS011;15926;51.348;6.596;2023-03-01T10:04:38;12.65;;;6.10;;
28774;SDS011;15926;51.348;6.596;2023-03-01T10:06:41;10.98;;;6.78;;
28774;SDS011;15926;51.348;6.596;2023-03-01T10:09:13;11.00;;;7.10;;
28774;SDS011;15926;51.348;6.596;2023-03-01T10:11:50;9.57;;;6.43;;
28774;SDS011;15926;51.348;6.596;2023-03-01T10:14:28;11.27;;;7.05;;
28774;SDS011;15926;51.348;6.596;2023-03-01T10:17:08;9.60;;;6.30;;
28774;SDS011;15926;51.348;6.596;2023-03-01T10:22:09;10.43;;;6.30;;
28774;SDS011;15926;51.348;6.596;2023-03-01T10:24:37;8.77;;;5.95;;
28774;SDS011;15926;51.348;6.596;2023-03-01T10:27:12;7.85;;;5.95;;
28774;SDS011;15926;51.348;6.596;2023-03-01T10:29:46;10.45;;;6.13;;
28774;SDS011;15926;51.348;6.596;2023-03-01T10:32:14;8.60;;;5.60;;
28774;SDS011;15926;51.348;6.596;2023-03-01T10:34:40;6.25;;;5.28;;
28774;SDS011;15926;51.348;6.596;2023-03-01T10:39:35;10.93;;;6.15;;
28774;SDS011;15926;51.348;6.596;2023-03-01T10:42:02;8.85;;;5.97;;
28774;SDS011;15926;51.348;6.596;2023-03-01T10:44:36;6.28;;;4.70;;
28774;SDS011;15926;51.348;6.596;2023-03-01T10:47:02;10.32;;;5.57;;
28774;SDS011;15926;51.348;6.596;2023-03-01T10:49:29;7.22;;;5.32;;
28774;SDS011;15926;51.348;6.596;2023-03-01T10:51:55;8.95;;;5.45;;
28774;SDS011;15926;51.348;6.596;2023-03-01T10:54:31;8.13;;;5.07;;
28774;SDS011;15926;51.348;6.596;2023-03-01T10:56:59;6.78;;;4.90;;
28774;SDS011;15926;51.348;6.596;2023-03-01T10:59:32;7.75;;;5.28;;
28774;SDS011;15926;51.348;6.596;2023-03-01T11:02:16;7.75;;;5.32;;
28774;SDS011;15926;51.348;6.596;2023-03-01T11:04:59;9.40;;;5.70;;
28774;SDS011;15926;51.348;6.596;2023-03-01T11:07:25;8.30;;;4.93;;
28774;SDS011;15926;51.348;6.596;2023-03-01T11:09:51;9.88;;;6.00;;
28774;SDS011;15926;51.348;6.596;2023-03-01T11:12:17;10.48;;;5.47;;
28774;SDS011;15926;51.348;6.596;2023-03-01T11:14:50;7.38;;;5.15;;
28774;SDS011;15926;51.348;6.596;2023-03-01T11:17:24;12.70;;;5.57;;
28774;SDS011;15926;51.348;6.596;2023-03-01T11:22:31;10.27;;;4.85;;
28774;SDS011;15926;51.348;6.596;2023-03-01T11:24:58;11.32;;;4.85;;
28774;SDS011;15926;51.348;6.596;2023-03-01T11:27:26;7.20;;;4.78;;
28774;SDS011;15926;51.348;6.596;2023-03-01T11:30:00;10.20;;;4.93;;
28774;SDS011;15926;51.348;6.596;2023-03-01T11:32:31;5.60;;;4.53;;
28774;SDS011;15926;51.348;6.596;2023-03-01T11:35:02;6.88;;;5.03;;
28774;SDS011;15926;51.348;6.596;2023-03-01T11:37:33;8.27;;;5.68;;
28774;SDS011;15926;51.348;6.596;2023-03-01T11:45:42;7.55;;;5.30;;
28774;SDS011;15926;51.348;6.596;2023-03-01T11:50:42;7.53;;;4.45;;
28774;SDS011;15926;51.348;6.596;2023-03-01T11:58:31;7.63;;;4.43;;
28774;SDS011;15926;51.348;6.596;2023-03-01T12:01:02;4.90;;;4.13;;
28774;SDS011;15926;51.348;6.596;2023-03-01T12:03:37;6.88;;;3.90;;
28774;SDS011;15926;51.348;6.596;2023-03-01T12:24:06;5.10;;;4.00;;
28774;SDS011;15926;51.348;6.596;2023-03-01T12:29:18;7.95;;;4.45;;
28774;SDS011;15926;51.348;6.596;2023-03-01T12:49:41;4.90;;;4.13;;
28774;SDS011;15926;51.348;6.596;2023-03-01T12:54:36;7.15;;;3.97;;
28774;SDS011;15926;51.348;6.596;2023-03-01T12:57:08;4.25;;;3.85;;
28774;SDS011;15926;51.348;6.596;2023-03-01T13:11:56;8.05;;;4.65;;
28774;SDS011;15926;51.348;6.596;2023-03-01T13:16:49;7.75;;;4.47;;
28774;SDS011;15926;51.348;6.596;2023-03-01T13:19:25;6.47;;;4.20;;
28774;SDS011;15926;51.348;6.596;2023-03-01T13:21:54;6.45;;;3.85;;
28774;SDS011;15926;51.348;6.596;2023-03-01T13:29:51;4.25;;;3.85;;
28774;SDS011;15926;51.348;6.596;2023-03-01T13:32:24;5.13;;;3.40;;
28774;SDS011;15926;51.348;6.596;2023-03-01T13:34:51;9.15;;;4.18;;
28774;SDS011;15926;51.348;6.596;2023-03-01T13:37:18;6.93;;;3.97;;
28774;SDS011;15926;51.348;6.596;2023-03-01T13:39:45;8.32;;;4.78;;
28774;SDS011;15926;51.348;6.596;2023-03-01T13:44:56;6.22;;;4.40;;
28774;SDS011;15926;51.348;6.596;2023-03-01T13:47:22;7.32;;;4.63;;
28774;SDS011;15926;51.348;6.596;2023-03-01T13:49:50;9.13;;;4.85;;
28774;SDS011;15926;51.348;6.596;2023-03-01T13:54:44;5.50;;;3.65;;
28774;SDS011;15926;51.348;6.596;2023-03-01T13:57:12;7.60;;;4.03;;
28774;SDS011;15926;51.348;6.596;2023-03-01T13:59:48;6.80;;;4.63;;
28774;SDS011;15926;51.348;6.596;2023-03-01T14:02:14;4.88;;;4.18;;
28774;SDS011;15926;51.348;6.596;2023-03-01T14:04:40;11.75;;;4.88;;
28774;SDS011;15926;51.348;6.596;2023-03-01T14:09:37;8.35;;;4.13;;
28774;SDS011;15926;51.348;6.596;2023-03-01T14:14:45;5.93;;;4.20;;
28774;SDS011;15926;51.348;6.596;2023-03-01T14:19:38;5.43;;;3.90;;
28774;SDS011;15926;51.348;6.596;2023-03-01T14:24:31;5.15;;;3.97;;
28774;SDS011;15926;51.348;6.596;2023-03-01T14:27:01;11.43;;;4.55;;
28774;SDS011;15926;51.348;6.596;2023-03-01T14:29:29;5.68;;;3.65;;
28774;SDS011;15926;51.348;6.596;2023-03-01T14:32:08;6.25;;;3.70;;
28774;SDS011;15926;51.348;6.596;2023-03-01T14:34:34;7.90;;;4.47;;
28774;SDS011;15926;51.348;6.596;2023-03-01T14:39:45;5.85;;;4.18;;
28774;SDS011;15926;51.348;6.596;2023-03-01T14:42:11;6.50;;;4.40;;
28774;SDS011;15926;51.348;6.596;2023-03-01T14:44:38;5.68;;;4.18;;
28774;SDS011;15926;51.348;6.596;2023-03-01T14:47:06;7.53;;;4.57;;
28774;SDS011;15926;51.348;6.596;2023-03-01T14:49:32;8.23;;;4.45;;
28774;SDS011;15926;51.348;6.596;2023-03-01T14:51:59;6.38;;;4.38;;
28774;SDS011;15926;51.348;6.596;2023-03-01T14:54:28;9.75;;;4.55;;
28774;SDS011;15926;51.348;6.596;2023-03-01T14:56:59;6.35;;;4.00;;
28774;SDS011;15926;51.348;6.596;2023-03-01T14:59:25;6.00;;;4.45;;
28774;SDS011;15926;51.348;6.596;2023-03-01T15:01:51;5.28;;;4.13;;
28774;SDS011;15926;51.348;6.596;2023-03-01T15:04:19;6.03;;;4.70;;
28774;SDS011;15926;51.348;6.596;2023-03-01T15:06:45;7.65;;;4.80;;
28774;SDS011;15926;51.348;6.596;2023-03-01T15:09:13;8.02;;;4.88;;
28774;SDS011;15926;51.348;6.596;2023-03-01T15:11:40;7.00;;;4.72;;
28774;SDS011;15926;51.348;6.596;2023-03-01T15:16:53;8.02;;;5.22;;
28774;SDS011;15926;51.348;6.596;2023-03-01T15:19:19;6.88;;;4.10;;
28774;SDS011;15926;51.348;6.596;2023-03-01T15:21:46;6.40;;;4.35;;
28774;SDS011;15926;51.348;6.596;2023-03-01T15:24:16;5.63;;;4.20;;
28774;SDS011;15926;51.348;6.596;2023-03-01T15:29:21;9.13;;;4.70;;
28774;SDS011;15926;51.348;6.596;2023-03-01T15:31:55;6.70;;;4.60;;
28774;SDS011;15926;51.348;6.596;2023-03-01T15:34:22;5.35;;;4.35;;
28774;SDS011;15926;51.348;6.596;2023-03-01T15:36:49;7.70;;;4.97;;
28774;SDS011;15926;51.348;6.596;2023-03-01T15:39:49;7.47;;;4.90;;
28774;SDS011;15926;51.348;6.596;2023-03-01T15:47:35;7.07;;;5.45;;
28774;SDS011;15926;51.348;6.596;2023-03-01T15:50:01;12.18;;;5.65;;
28774;SDS011;15926;51.348;6.596;2023-03-01T15:52:29;7.13;;;5.07;;
28774;SDS011;15926;51.348;6.596;2023-03-01T15:55:05;7.57;;;5.28;;
28774;SDS011;15926;51.348;6.596;2023-03-01T15:57:32;7.40;;;5.28;;
28774;SDS011;15926;51.348;6.596;2023-03-01T15:59:58;7.90;;;5.18;;
28774;SDS011;15926;51.348;6.596;2023-03-01T16:02:24;7.70;;;4.68;;
28774;SDS011;15926;51.348;6.596;2023-03-01T16:04:50;6.25;;;4.85;;
28774;SDS011;15926;51.348;6.596;2023-03-01T16:07:16;7.90;;;4.30;;
28774;SDS011;15926;51.348;6.596;2023-03-01T16:09:42;9.73;;;5.80;;
28774;SDS011;15926;51.348;6.596;2023-03-01T16:12:15;6.93;;;4.78;;
28774;SDS011;15926;51.348;6.596;2023-03-01T16:14:42;9.18;;;5.45;;
28774;SDS011;15926;51.348;6.596;2023-03-01T16:17:08;11.30;;;5.20;;
28774;SDS011;15926;51.348;6.596;2023-03-01T16:19:35;7.88;;;5.55;;
28774;SDS011;15926;51.348;6.596;2023-03-01T16:22:02;9.38;;;5.20;;
28774;SDS011;15926;51.348;6.596;2023-03-01T16:24:28;6.38;;;4.57;;
28774;SDS011;15926;51.348;6.596;2023-03-01T16:26:54;8.65;;;5.00;;
28774;SDS011;15926;51.348;6.596;2023-03-01T16:29:20;8.73;;;4.45;;
28774;SDS011;15926;51.348;6.596;2023-03-01T16:31:47;6.60;;;4.18;;
28774;SDS011;15926;51.348;6.596;2023-03-01T16:34:13;9.90;;;4.65;;
28774;SDS011;15926;51.348;6.596;2023-03-01T16:36:39;11.40;;;4.70;;
28774;SDS011;15926;51.348;6.596;2023-03-01T16:39:06;5.95;;;5.18;;
28774;SDS011;15926;51.348;6.596;2023-03-01T16:41:32;5.82;;;4.15;;
28774;SDS011;15926;51.348;6.596;2023-03-01T16:43:58;8.32;;;4.78;;
28774;SDS011;15926;51.348;6.596;2023-03-01T16:46:25;6.53;;;4.70;;
28774;SDS011;15926;51.348;6.596;2023-03-01T16:48:52;6.88;;;4.85;;
28774;SDS011;15926;51.348;6.596;2023-03-01T16:51:19;10.45;;;4.97;;
28774;SDS011;15926;51.348;6.596;2023-03-01T16:53:45;8.52;;;4.50;;
28774;SDS011;15926;51.348;6.596;2023-03-01T16:56:11;7.10;;;4.32;;
28774;SDS011;15926;51.348;6.596;2023-03-01T16:58:38;9.23;;;4.80;;
28774;SDS011;15926;51.348;6.596;2023-03-01T17:01:12;8.07;;;4.60;;
28774;SDS011;15926;51.348;6.596;2023-03-01T17:03:38;8.00;;;4.70;;